sensor_id;sensor_type;location;lat;lon;timestamp;P1;durP1;ratioP1;P2;durP2;ratioP2
82560;SDS011;72228;51.208;10.468;2023-11-19T00:01:41;5.25;;;2.58;;
82560;SDS011;72228;51.208;10.468;2023-11-19T00:04:07;3.58;;;2.17;;
82560;SDS011;72228;51.208;10.468;2023-11-19T00:06:33;3.63;;;2.13;;
82560;SDS011;72228;51.208;10.468;2023-11-19T00:08:59;2.92;;;2.10;;
82560;SDS011;72228;51.208;10.468;2023-11-19T00:11:25;3.08;;;1.90;;
82560;SDS011;72228;51.208;10.468;2023-11-19T00:13:52;3.10;;;2.17;;
82560;SDS011;72228;51.208;10.468;2023-11-19T00:16:17;2.20;;;1.98;;
82560;SDS011;72228;51.208;10.468;2023-11-19T00:18:43;2.80;;;1.73;;
82560;SDS011;72228;51.208;10.468;2023-11-19T00:21:09;4.38;;;2.22;;
82560;SDS011;72228;51.208;10.468;2023-11-19T00:23:35;3.13;;;2.33;;
82560;SDS011;72228;51.208;10.468;2023-11-19T00:26:02;3.25;;;1.92;;
82560;SDS011;72228;51.208;10.468;2023-11-19T00:28:52;5.50;;;2.63;;
82560;SDS011;72228;51.208;10.468;2023-11-19T00:31:18;3.70;;;2.42;;
82560;SDS011;72228;51.208;10.468;2023-11-19T00:33:44;5.13;;;2.35;;
82560;SDS011;72228;51.208;10.468;2023-11-19T00:36:10;2.85;;;2.17;;
82560;SDS011;72228;51.208;10.468;2023-11-19T00:38:36;4.28;;;2.08;;
82560;SDS011;72228;51.208;10.468;2023-11-19T00:41:02;2.65;;;1.75;;
82560;SDS011;72228;51.208;10.468;2023-11-19T00:43:29;2.13;;;1.40;;
82560;SDS011;72228;51.208;10.468;2023-11-19T00:45:55;2.10;;;1.35;;
82560;SDS011;72228;51.208;10.468;2023-11-19T00:48:21;2.38;;;1.50;;
82560;SDS011;72228;51.208;10.468;2023-11-19T00:50:46;2.00;;;1.50;;
82560;SDS011;72228;51.208;10.468;2023-11-19T00:53:13;2.30;;;1.50;;
82560;SDS011;72228;51.208;10.468;2023-11-19T00:55:38;1.42;;;1.17;;
82560;SDS011;72228;51.208;10.468;2023-11-19T00:58:04;2.20;;;1.48;;
82560;SDS011;72228;51.208;10.468;2023-11-19T01:00:31;1.75;;;1.20;;
82560;SDS011;72228;51.208;10.468;2023-11-19T01:02:58;1.83;;;1.30;;
82560;SDS011;72228;51.208;10.468;2023-11-19T01:05:25;1.35;;;1.05;;
82560;SDS011;72228;51.208;10.468;2023-11-19T01:07:51;2.05;;;1.23;;
82560;SDS011;72228;51.208;10.468;2023-11-19T01:10:19;1.63;;;1.25;;
82560;SDS011;72228;51.208;10.468;2023-11-19T01:12:45;1.50;;;1.20;;
82560;SDS011;72228;51.208;10.468;2023-11-19T01:15:12;1.33;;;1.08;;
82560;SDS011;72228;51.208;10.468;2023-11-19T01:17:38;1.27;;;1.17;;
82560;SDS011;72228;51.208;10.468;2023-11-19T01:20:04;1.40;;;1.25;;
82560;SDS011;72228;51.208;10.468;2023-11-19T01:22:32;1.80;;;1.33;;
82560;SDS011;72228;51.208;10.468;2023-11-19T01:24:58;1.15;;;0.95;;
82560;SDS011;72228;51.208;10.468;2023-11-19T01:27:24;1.80;;;1.38;;
82560;SDS011;72228;51.208;10.468;2023-11-19T01:29:50;2.08;;;1.00;;
82560;SDS011;72228;51.208;10.468;2023-11-19T01:32:16;1.40;;;1.17;;
82560;SDS011;72228;51.208;10.468;2023-11-19T01:34:42;1.38;;;1.02;;
82560;SDS011;72228;51.208;10.468;2023-11-19T01:37:08;3.40;;;1.40;;
82560;SDS011;72228;51.208;10.468;2023-11-19T01:39:35;2.00;;;1.45;;
82560;SDS011;72228;51.208;10.468;2023-11-19T01:42:01;2.15;;;1.45;;
82560;SDS011;72228;51.208;10.468;2023-11-19T01:44:27;1.33;;;1.10;;
82560;SDS011;72228;51.208;10.468;2023-11-19T01:46:53;2.13;;;1.27;;
82560;SDS011;72228;51.208;10.468;2023-11-19T01:49:19;1.90;;;1.30;;
82560;SDS011;72228;51.208;10.468;2023-11-19T01:51:46;1.63;;;1.42;;
82560;SDS011;72228;51.208;10.468;2023-11-19T01:54:13;2.00;;;1.30;;
82560;SDS011;72228;51.208;10.468;2023-11-19T01:56:40;1.73;;;1.42;;
82560;SDS011;72228;51.208;10.468;2023-11-19T01:59:08;1.50;;;1.17;;
82560;SDS011;72228;51.208;10.468;2023-11-19T02:01:35;1.38;;;1.20;;
82560;SDS011;72228;51.208;10.468;2023-11-19T02:04:05;1.17;;;0.90;;
82560;SDS011;72228;51.208;10.468;2023-11-19T02:06:33;1.00;;;0.82;;
82560;SDS011;72228;51.208;10.468;2023-11-19T02:09:01;2.08;;;1.30;;
82560;SDS011;72228;51.208;10.468;2023-11-19T02:11:27;2.05;;;1.42;;
82560;SDS011;72228;51.208;10.468;2023-11-19T02:13:55;4.15;;;1.20;;
82560;SDS011;72228;51.208;10.468;2023-11-19T02:16:22;1.73;;;1.13;;
82560;SDS011;72228;51.208;10.468;2023-11-19T02:18:48;1.45;;;1.20;;
82560;SDS011;72228;51.208;10.468;2023-11-19T02:21:14;1.75;;;1.23;;
82560;SDS011;72228;51.208;10.468;2023-11-19T02:23:40;1.58;;;1.20;;
82560;SDS011;72228;51.208;10.468;2023-11-19T02:26:15;1.83;;;1.25;;
82560;SDS011;72228;51.208;10.468;2023-11-19T02:28:46;3.13;;;1.10;;
82560;SDS011;72228;51.208;10.468;2023-11-19T02:31:12;0.95;;;0.80;;
82560;SDS011;72228;51.208;10.468;2023-11-19T02:33:38;1.33;;;0.90;;
82560;SDS011;72228;51.208;10.468;2023-11-19T02:36:05;1.50;;;1.20;;
82560;SDS011;72228;51.208;10.468;2023-11-19T02:38:35;1.45;;;1.15;;
82560;SDS011;72228;51.208;10.468;2023-11-19T02:41:04;2.45;;;1.20;;
82560;SDS011;72228;51.208;10.468;2023-11-19T02:43:32;0.80;;;0.75;;
82560;SDS011;72228;51.208;10.468;2023-11-19T02:46:02;0.75;;;0.73;;
82560;SDS011;72228;51.208;10.468;2023-11-19T02:48:37;1.52;;;1.27;;
82560;SDS011;72228;51.208;10.468;2023-11-19T02:51:05;1.80;;;1.20;;
82560;SDS011;72228;51.208;10.468;2023-11-19T02:53:37;1.05;;;0.93;;
82560;SDS011;72228;51.208;10.468;2023-11-19T02:56:05;1.65;;;1.20;;
82560;SDS011;72228;51.208;10.468;2023-11-19T02:58:37;1.35;;;1.23;;
82560;SDS011;72228;51.208;10.468;2023-11-19T03:01:05;1.50;;;1.13;;
82560;SDS011;72228;51.208;10.468;2023-11-19T03:03:49;1.48;;;1.02;;
82560;SDS011;72228;51.208;10.468;2023-11-19T03:06:20;1.63;;;0.93;;
82560;SDS011;72228;51.208;10.468;2023-11-19T03:08:47;0.93;;;0.85;;
82560;SDS011;72228;51.208;10.468;2023-11-19T03:11:13;1.50;;;1.27;;
82560;SDS011;72228;51.208;10.468;2023-11-19T03:13:41;1.05;;;0.95;;
82560;SDS011;72228;51.208;10.468;2023-11-19T03:16:07;0.52;;;0.52;;
82560;SDS011;72228;51.208;10.468;2023-11-19T03:18:33;3.00;;;0.70;;
82560;SDS011;72228;51.208;10.468;2023-11-19T03:20:59;0.50;;;0.50;;
82560;SDS011;72228;51.208;10.468;2023-11-19T03:23:25;0.82;;;0.70;;
82560;SDS011;72228;51.208;10.468;2023-11-19T03:25:53;1.75;;;0.82;;
82560;SDS011;72228;51.208;10.468;2023-11-19T03:28:21;0.80;;;0.68;;
82560;SDS011;72228;51.208;10.468;2023-11-19T03:30:46;1.00;;;0.88;;
82560;SDS011;72228;51.208;10.468;2023-11-19T03:33:12;0.82;;;0.70;;
82560;SDS011;72228;51.208;10.468;2023-11-19T03:35:38;1.05;;;0.93;;
82560;SDS011;72228;51.208;10.468;2023-11-19T03:38:06;0.95;;;0.90;;
82560;SDS011;72228;51.208;10.468;2023-11-19T03:40:32;0.98;;;0.88;;
82560;SDS011;72228;51.208;10.468;2023-11-19T03:42:58;0.75;;;0.75;;
82560;SDS011;72228;51.208;10.468;2023-11-19T03:45:24;1.15;;;1.05;;
82560;SDS011;72228;51.208;10.468;2023-11-19T03:47:50;1.10;;;0.80;;
82560;SDS011;72228;51.208;10.468;2023-11-19T03:50:17;1.08;;;0.80;;
82560;SDS011;72228;51.208;10.468;2023-11-19T03:55:11;0.73;;;0.60;;
82560;SDS011;72228;51.208;10.468;2023-11-19T03:57:38;1.98;;;1.10;;
82560;SDS011;72228;51.208;10.468;2023-11-19T04:00:05;0.77;;;0.70;;
82560;SDS011;72228;51.208;10.468;2023-11-19T04:02:40;0.65;;;0.55;;
82560;SDS011;72228;51.208;10.468;2023-11-19T04:05:06;0.82;;;0.80;;
82560;SDS011;72228;51.208;10.468;2023-11-19T04:07:33;1.05;;;0.95;;
82560;SDS011;72228;51.208;10.468;2023-11-19T04:09:59;1.40;;;1.13;;
82560;SDS011;72228;51.208;10.468;2023-11-19T04:12:25;1.20;;;0.88;;
82560;SDS011;72228;51.208;10.468;2023-11-19T04:14:51;0.95;;;0.73;;
82560;SDS011;72228;51.208;10.468;2023-11-19T04:17:18;1.05;;;0.88;;
82560;SDS011;72228;51.208;10.468;2023-11-19T04:19:44;1.02;;;0.95;;
82560;SDS011;72228;51.208;10.468;2023-11-19T04:22:09;1.10;;;0.80;;
82560;SDS011;72228;51.208;10.468;2023-11-19T04:24:36;1.02;;;0.70;;
82560;SDS011;72228;51.208;10.468;2023-11-19T04:27:04;1.25;;;0.95;;
82560;SDS011;72228;51.208;10.468;2023-11-19T04:29:31;1.00;;;0.90;;
82560;SDS011;72228;51.208;10.468;2023-11-19T04:32:00;0.88;;;0.73;;
82560;SDS011;72228;51.208;10.468;2023-11-19T04:34:28;1.05;;;0.70;;
82560;SDS011;72228;51.208;10.468;2023-11-19T04:36:54;1.77;;;1.10;;
82560;SDS011;72228;51.208;10.468;2023-11-19T04:39:19;1.35;;;0.90;;
82560;SDS011;72228;51.208;10.468;2023-11-19T04:41:46;0.50;;;0.50;;
82560;SDS011;72228;51.208;10.468;2023-11-19T04:44:16;0.80;;;0.47;;
82560;SDS011;72228;51.208;10.468;2023-11-19T04:46:42;1.45;;;0.70;;
82560;SDS011;72228;51.208;10.468;2023-11-19T04:49:11;0.68;;;0.60;;
82560;SDS011;72228;51.208;10.468;2023-11-19T04:51:41;1.08;;;0.98;;
82560;SDS011;72228;51.208;10.468;2023-11-19T04:54:08;1.25;;;0.98;;
82560;SDS011;72228;51.208;10.468;2023-11-19T04:56:37;1.10;;;0.90;;
82560;SDS011;72228;51.208;10.468;2023-11-19T04:59:03;1.30;;;1.05;;
82560;SDS011;72228;51.208;10.468;2023-11-19T05:01:34;1.17;;;1.05;;
82560;SDS011;72228;51.208;10.468;2023-11-19T05:04:01;3.72;;;1.10;;
82560;SDS011;72228;51.208;10.468;2023-11-19T05:06:30;1.40;;;1.10;;
82560;SDS011;72228;51.208;10.468;2023-11-19T05:08:59;1.58;;;1.30;;
82560;SDS011;72228;51.208;10.468;2023-11-19T05:11:34;1.58;;;0.93;;
82560;SDS011;72228;51.208;10.468;2023-11-19T05:14:02;1.20;;;1.10;;
82560;SDS011;72228;51.208;10.468;2023-11-19T05:16:31;3.28;;;1.20;;
82560;SDS011;72228;51.208;10.468;2023-11-19T05:18:57;1.20;;;1.10;;
82560;SDS011;72228;51.208;10.468;2023-11-19T05:21:23;1.20;;;1.10;;
82560;SDS011;72228;51.208;10.468;2023-11-19T05:23:49;1.50;;;1.10;;
82560;SDS011;72228;51.208;10.468;2023-11-19T05:26:19;1.40;;;1.02;;
82560;SDS011;72228;51.208;10.468;2023-11-19T05:28:51;1.40;;;1.30;;
82560;SDS011;72228;51.208;10.468;2023-11-19T05:31:17;1.77;;;1.40;;
82560;SDS011;72228;51.208;10.468;2023-11-19T05:33:43;1.75;;;1.50;;
82560;SDS011;72228;51.208;10.468;2023-11-19T05:36:10;1.05;;;0.98;;
82560;SDS011;72228;51.208;10.468;2023-11-19T05:38:38;2.60;;;1.55;;
82560;SDS011;72228;51.208;10.468;2023-11-19T05:41:04;1.63;;;1.30;;
82560;SDS011;72228;51.208;10.468;2023-11-19T05:43:30;2.80;;;1.83;;
82560;SDS011;72228;51.208;10.468;2023-11-19T05:45:59;2.03;;;1.30;;
82560;SDS011;72228;51.208;10.468;2023-11-19T05:48:26;1.92;;;1.48;;
82560;SDS011;72228;51.208;10.468;2023-11-19T05:50:53;2.08;;;1.58;;
82560;SDS011;72228;51.208;10.468;2023-11-19T05:53:19;2.08;;;1.70;;
82560;SDS011;72228;51.208;10.468;2023-11-19T05:55:45;2.15;;;1.50;;
82560;SDS011;72228;51.208;10.468;2023-11-19T05:58:24;2.63;;;1.70;;
82560;SDS011;72228;51.208;10.468;2023-11-19T06:00:55;4.35;;;2.00;;
82560;SDS011;72228;51.208;10.468;2023-11-19T06:03:21;4.15;;;1.67;;
82560;SDS011;72228;51.208;10.468;2023-11-19T06:05:48;2.60;;;1.60;;
82560;SDS011;72228;51.208;10.468;2023-11-19T06:08:14;3.60;;;2.47;;
82560;SDS011;72228;51.208;10.468;2023-11-19T06:10:40;2.63;;;2.03;;
82560;SDS011;72228;51.208;10.468;2023-11-19T06:13:06;2.50;;;1.80;;
82560;SDS011;72228;51.208;10.468;2023-11-19T06:15:35;3.42;;;1.83;;
82560;SDS011;72228;51.208;10.468;2023-11-19T06:18:01;2.50;;;1.80;;
82560;SDS011;72228;51.208;10.468;2023-11-19T06:20:32;2.30;;;1.88;;
82560;SDS011;72228;51.208;10.468;2023-11-19T06:22:58;2.72;;;1.80;;
82560;SDS011;72228;51.208;10.468;2023-11-19T06:25:28;2.55;;;1.73;;
82560;SDS011;72228;51.208;10.468;2023-11-19T06:27:54;3.63;;;2.00;;
82560;SDS011;72228;51.208;10.468;2023-11-19T06:30:20;3.05;;;2.05;;
82560;SDS011;72228;51.208;10.468;2023-11-19T06:32:48;2.83;;;2.05;;
82560;SDS011;72228;51.208;10.468;2023-11-19T06:35:14;2.88;;;2.10;;
82560;SDS011;72228;51.208;10.468;2023-11-19T06:37:58;2.78;;;2.08;;
82560;SDS011;72228;51.208;10.468;2023-11-19T06:40:24;3.08;;;1.88;;
82560;SDS011;72228;51.208;10.468;2023-11-19T06:42:50;3.38;;;2.08;;
82560;SDS011;72228;51.208;10.468;2023-11-19T06:45:17;2.80;;;1.73;;
82560;SDS011;72228;51.208;10.468;2023-11-19T06:47:43;3.53;;;2.20;;
82560;SDS011;72228;51.208;10.468;2023-11-19T06:50:09;3.15;;;2.20;;
82560;SDS011;72228;51.208;10.468;2023-11-19T06:52:37;3.33;;;2.22;;
82560;SDS011;72228;51.208;10.468;2023-11-19T06:55:04;3.67;;;2.20;;
82560;SDS011;72228;51.208;10.468;2023-11-19T06:57:30;3.53;;;2.33;;
82560;SDS011;72228;51.208;10.468;2023-11-19T06:59:58;2.85;;;2.08;;
82560;SDS011;72228;51.208;10.468;2023-11-19T07:02:24;1.75;;;1.55;;
82560;SDS011;72228;51.208;10.468;2023-11-19T07:04:52;3.13;;;2.00;;
82560;SDS011;72228;51.208;10.468;2023-11-19T07:07:18;2.80;;;1.90;;
82560;SDS011;72228;51.208;10.468;2023-11-19T07:09:44;2.85;;;1.95;;
82560;SDS011;72228;51.208;10.468;2023-11-19T07:12:10;2.38;;;2.03;;
82560;SDS011;72228;51.208;10.468;2023-11-19T07:14:36;2.90;;;2.40;;
82560;SDS011;72228;51.208;10.468;2023-11-19T07:17:02;3.70;;;2.38;;
82560;SDS011;72228;51.208;10.468;2023-11-19T07:19:29;2.75;;;2.20;;
82560;SDS011;72228;51.208;10.468;2023-11-19T07:22:04;3.42;;;2.22;;
82560;SDS011;72228;51.208;10.468;2023-11-19T07:24:34;5.78;;;2.72;;
82560;SDS011;72228;51.208;10.468;2023-11-19T07:27:21;3.35;;;2.30;;
82560;SDS011;72228;51.208;10.468;2023-11-19T07:29:49;4.97;;;2.72;;
82560;SDS011;72228;51.208;10.468;2023-11-19T07:32:17;4.88;;;2.85;;
82560;SDS011;72228;51.208;10.468;2023-11-19T07:34:43;3.58;;;2.70;;
82560;SDS011;72228;51.208;10.468;2023-11-19T07:37:15;3.55;;;2.35;;
82560;SDS011;72228;51.208;10.468;2023-11-19T07:39:53;6.07;;;2.50;;
82560;SDS011;72228;51.208;10.468;2023-11-19T07:42:19;5.82;;;3.03;;
82560;SDS011;72228;51.208;10.468;2023-11-19T07:44:49;6.53;;;2.92;;
82560;SDS011;72228;51.208;10.468;2023-11-19T07:47:23;4.45;;;2.85;;
82560;SDS011;72228;51.208;10.468;2023-11-19T07:49:56;4.35;;;2.25;;
82560;SDS011;72228;51.208;10.468;2023-11-19T07:52:48;3.40;;;1.95;;
82560;SDS011;72228;51.208;10.468;2023-11-19T07:55:15;10.90;;;4.35;;
82560;SDS011;72228;51.208;10.468;2023-11-19T07:57:41;3.97;;;1.95;;
82560;SDS011;72228;51.208;10.468;2023-11-19T08:00:08;9.18;;;2.13;;
82560;SDS011;72228;51.208;10.468;2023-11-19T08:02:41;6.10;;;3.25;;
82560;SDS011;72228;51.208;10.468;2023-11-19T08:05:11;11.20;;;2.88;;
82560;SDS011;72228;51.208;10.468;2023-11-19T08:07:37;4.65;;;2.70;;
82560;SDS011;72228;51.208;10.468;2023-11-19T08:10:04;8.50;;;2.80;;
82560;SDS011;72228;51.208;10.468;2023-11-19T08:12:34;9.50;;;2.95;;
82560;SDS011;72228;51.208;10.468;2023-11-19T08:15:01;14.13;;;6.40;;
82560;SDS011;72228;51.208;10.468;2023-11-19T08:17:30;6.28;;;3.88;;
82560;SDS011;72228;51.208;10.468;2023-11-19T08:19:57;6.47;;;2.63;;
82560;SDS011;72228;51.208;10.468;2023-11-19T08:22:26;7.03;;;2.92;;
82560;SDS011;72228;51.208;10.468;2023-11-19T08:24:52;2.67;;;2.03;;
82560;SDS011;72228;51.208;10.468;2023-11-19T08:27:18;6.13;;;2.50;;
82560;SDS011;72228;51.208;10.468;2023-11-19T08:29:44;3.47;;;2.03;;
82560;SDS011;72228;51.208;10.468;2023-11-19T08:32:14;7.13;;;2.65;;
82560;SDS011;72228;51.208;10.468;2023-11-19T08:34:40;6.97;;;2.33;;
82560;SDS011;72228;51.208;10.468;2023-11-19T08:37:07;4.35;;;2.25;;
82560;SDS011;72228;51.208;10.468;2023-11-19T08:39:33;5.90;;;2.33;;
82560;SDS011;72228;51.208;10.468;2023-11-19T08:42:00;4.18;;;2.30;;
82560;SDS011;72228;51.208;10.468;2023-11-19T08:44:27;11.20;;;6.30;;
82560;SDS011;72228;51.208;10.468;2023-11-19T08:46:54;6.63;;;5.07;;
82560;SDS011;72228;51.208;10.468;2023-11-19T08:49:21;5.05;;;1.60;;
82560;SDS011;72228;51.208;10.468;2023-11-19T08:51:47;11.15;;;3.97;;
82560;SDS011;72228;51.208;10.468;2023-11-19T08:54:14;7.43;;;2.80;;
82560;SDS011;72228;51.208;10.468;2023-11-19T08:56:44;33.95;;;18.45;;
82560;SDS011;72228;51.208;10.468;2023-11-19T08:59:16;17.52;;;8.27;;
82560;SDS011;72228;51.208;10.468;2023-11-19T09:01:43;14.60;;;6.05;;
82560;SDS011;72228;51.208;10.468;2023-11-19T09:04:10;8.25;;;5.72;;
82560;SDS011;72228;51.208;10.468;2023-11-19T09:06:39;14.63;;;5.80;;
82560;SDS011;72228;51.208;10.468;2023-11-19T09:09:06;16.33;;;7.65;;
82560;SDS011;72228;51.208;10.468;2023-11-19T09:11:33;25.30;;;12.18;;
82560;SDS011;72228;51.208;10.468;2023-11-19T09:14:10;15.90;;;6.95;;
82560;SDS011;72228;51.208;10.468;2023-11-19T09:16:37;16.52;;;7.40;;
82560;SDS011;72228;51.208;10.468;2023-11-19T09:19:13;8.68;;;3.13;;
82560;SDS011;72228;51.208;10.468;2023-11-19T09:21:39;9.32;;;5.03;;
82560;SDS011;72228;51.208;10.468;2023-11-19T09:24:05;7.60;;;2.17;;
82560;SDS011;72228;51.208;10.468;2023-11-19T09:26:36;7.15;;;2.67;;
82560;SDS011;72228;51.208;10.468;2023-11-19T09:29:04;5.25;;;2.55;;
82560;SDS011;72228;51.208;10.468;2023-11-19T09:31:32;5.78;;;3.50;;
82560;SDS011;72228;51.208;10.468;2023-11-19T09:33:58;5.65;;;3.28;;
82560;SDS011;72228;51.208;10.468;2023-11-19T09:36:24;4.72;;;3.10;;
82560;SDS011;72228;51.208;10.468;2023-11-19T09:38:51;13.27;;;3.25;;
82560;SDS011;72228;51.208;10.468;2023-11-19T09:41:17;8.82;;;3.85;;
82560;SDS011;72228;51.208;10.468;2023-11-19T09:43:45;13.02;;;3.05;;
82560;SDS011;72228;51.208;10.468;2023-11-19T09:46:14;7.60;;;3.97;;
82560;SDS011;72228;51.208;10.468;2023-11-19T09:48:43;8.18;;;2.38;;
82560;SDS011;72228;51.208;10.468;2023-11-19T09:51:11;10.35;;;3.22;;
82560;SDS011;72228;51.208;10.468;2023-11-19T09:53:37;6.65;;;2.17;;
82560;SDS011;72228;51.208;10.468;2023-11-19T09:56:04;6.93;;;1.77;;
82560;SDS011;72228;51.208;10.468;2023-11-19T09:58:31;13.02;;;2.08;;
82560;SDS011;72228;51.208;10.468;2023-11-19T10:00:59;8.18;;;2.08;;
82560;SDS011;72228;51.208;10.468;2023-11-19T10:03:34;10.73;;;3.60;;
82560;SDS011;72228;51.208;10.468;2023-11-19T10:06:06;8.32;;;2.80;;
82560;SDS011;72228;51.208;10.468;2023-11-19T10:08:37;6.68;;;2.88;;
82560;SDS011;72228;51.208;10.468;2023-11-19T10:11:05;12.40;;;2.47;;
82560;SDS011;72228;51.208;10.468;2023-11-19T10:13:35;5.05;;;1.58;;
82560;SDS011;72228;51.208;10.468;2023-11-19T10:16:07;9.65;;;2.85;;
82560;SDS011;72228;51.208;10.468;2023-11-19T10:18:47;8.70;;;2.35;;
82560;SDS011;72228;51.208;10.468;2023-11-19T10:21:18;8.10;;;4.65;;
82560;SDS011;72228;51.208;10.468;2023-11-19T10:23:49;4.88;;;1.90;;
82560;SDS011;72228;51.208;10.468;2023-11-19T10:26:22;10.88;;;2.53;;
82560;SDS011;72228;51.208;10.468;2023-11-19T10:28:51;10.27;;;3.53;;
82560;SDS011;72228;51.208;10.468;2023-11-19T10:31:20;10.30;;;1.90;;
82560;SDS011;72228;51.208;10.468;2023-11-19T10:33:51;20.73;;;7.03;;
82560;SDS011;72228;51.208;10.468;2023-11-19T10:36:25;15.15;;;7.07;;
82560;SDS011;72228;51.208;10.468;2023-11-19T10:39:06;14.55;;;6.68;;
82560;SDS011;72228;51.208;10.468;2023-11-19T10:41:35;47.75;;;19.10;;
82560;SDS011;72228;51.208;10.468;2023-11-19T10:44:01;18.55;;;5.85;;
82560;SDS011;72228;51.208;10.468;2023-11-19T10:46:37;34.35;;;11.38;;
82560;SDS011;72228;51.208;10.468;2023-11-19T10:49:08;19.90;;;8.13;;
82560;SDS011;72228;51.208;10.468;2023-11-19T10:51:35;17.38;;;6.00;;
82560;SDS011;72228;51.208;10.468;2023-11-19T10:54:05;9.98;;;4.57;;
82560;SDS011;72228;51.208;10.468;2023-11-19T10:56:32;13.20;;;4.07;;
82560;SDS011;72228;51.208;10.468;2023-11-19T10:59:10;12.75;;;5.75;;
82560;SDS011;72228;51.208;10.468;2023-11-19T11:01:45;10.90;;;5.78;;
82560;SDS011;72228;51.208;10.468;2023-11-19T11:04:14;11.15;;;2.60;;
82560;SDS011;72228;51.208;10.468;2023-11-19T11:06:42;14.20;;;2.45;;
82560;SDS011;72228;51.208;10.468;2023-11-19T11:09:09;10.45;;;2.22;;
82560;SDS011;72228;51.208;10.468;2023-11-19T11:11:41;8.20;;;2.33;;
82560;SDS011;72228;51.208;10.468;2023-11-19T11:16:44;13.43;;;2.53;;
82560;SDS011;72228;51.208;10.468;2023-11-19T11:19:22;7.75;;;2.50;;
82560;SDS011;72228;51.208;10.468;2023-11-19T11:21:52;7.22;;;1.75;;
82560;SDS011;72228;51.208;10.468;2023-11-19T11:24:44;13.80;;;2.38;;
82560;SDS011;72228;51.208;10.468;2023-11-19T11:27:45;10.00;;;2.25;;
82560;SDS011;72228;51.208;10.468;2023-11-19T11:33:10;4.30;;;1.60;;
82560;SDS011;72228;51.208;10.468;2023-11-19T11:38:33;8.77;;;2.42;;
82560;SDS011;72228;51.208;10.468;2023-11-19T11:41:15;84.07;;;32.97;;
82560;SDS011;72228;51.208;10.468;2023-11-19T11:43:43;54.70;;;20.30;;
82560;SDS011;72228;51.208;10.468;2023-11-19T11:46:53;33.53;;;11.52;;
82560;SDS011;72228;51.208;10.468;2023-11-19T11:49:03;23.65;;;7.70;;
82560;SDS011;72228;51.208;10.468;2023-11-19T11:54:11;29.95;;;11.63;;
82560;SDS011;72228;51.208;10.468;2023-11-19T11:57:07;34.75;;;16.63;;
82560;SDS011;72228;51.208;10.468;2023-11-19T12:02:08;15.48;;;4.68;;
82560;SDS011;72228;51.208;10.468;2023-11-19T12:04:36;18.75;;;6.40;;
82560;SDS011;72228;51.208;10.468;2023-11-19T12:07:06;27.17;;;11.18;;
82560;SDS011;72228;51.208;10.468;2023-11-19T12:09:33;19.88;;;8.65;;
82560;SDS011;72228;51.208;10.468;2023-11-19T12:20:02;15.38;;;8.05;;
82560;SDS011;72228;51.208;10.468;2023-11-19T12:22:31;22.13;;;8.80;;
82560;SDS011;72228;51.208;10.468;2023-11-19T12:24:57;20.60;;;7.30;;
82560;SDS011;72228;51.208;10.468;2023-11-19T12:27:24;15.90;;;5.50;;
82560;SDS011;72228;51.208;10.468;2023-11-19T12:29:50;23.67;;;8.63;;
82560;SDS011;72228;51.208;10.468;2023-11-19T12:32:16;7.00;;;3.65;;
82560;SDS011;72228;51.208;10.468;2023-11-19T12:34:42;17.90;;;4.45;;
82560;SDS011;72228;51.208;10.468;2023-11-19T12:37:07;11.27;;;4.05;;
82560;SDS011;72228;51.208;10.468;2023-11-19T12:39:36;11.32;;;2.63;;
82560;SDS011;72228;51.208;10.468;2023-11-19T12:42:02;8.30;;;2.45;;
82560;SDS011;72228;51.208;10.468;2023-11-19T12:44:28;10.52;;;3.58;;
82560;SDS011;72228;51.208;10.468;2023-11-19T12:47:01;16.27;;;4.10;;
82560;SDS011;72228;51.208;10.468;2023-11-19T12:49:27;13.98;;;5.00;;
82560;SDS011;72228;51.208;10.468;2023-11-19T12:51:53;5.43;;;1.88;;
82560;SDS011;72228;51.208;10.468;2023-11-19T12:54:19;8.75;;;2.75;;
82560;SDS011;72228;51.208;10.468;2023-11-19T12:56:52;15.93;;;5.10;;
82560;SDS011;72228;51.208;10.468;2023-11-19T12:59:18;13.25;;;3.17;;
82560;SDS011;72228;51.208;10.468;2023-11-19T13:02:05;6.88;;;2.63;;
82560;SDS011;72228;51.208;10.468;2023-11-19T13:04:32;14.77;;;3.13;;
82560;SDS011;72228;51.208;10.468;2023-11-19T13:06:58;14.98;;;3.38;;
82560;SDS011;72228;51.208;10.468;2023-11-19T13:09:25;15.95;;;4.75;;
82560;SDS011;72228;51.208;10.468;2023-11-19T13:11:53;24.35;;;8.23;;
82560;SDS011;72228;51.208;10.468;2023-11-19T13:14:20;11.23;;;2.33;;
82560;SDS011;72228;51.208;10.468;2023-11-19T13:16:46;10.30;;;2.25;;
82560;SDS011;72228;51.208;10.468;2023-11-19T13:19:15;13.93;;;2.80;;
82560;SDS011;72228;51.208;10.468;2023-11-19T13:21:45;6.68;;;2.42;;
82560;SDS011;72228;51.208;10.468;2023-11-19T13:24:14;10.02;;;2.55;;
82560;SDS011;72228;51.208;10.468;2023-11-19T13:26:40;11.57;;;3.15;;
82560;SDS011;72228;51.208;10.468;2023-11-19T13:29:05;8.10;;;2.67;;
82560;SDS011;72228;51.208;10.468;2023-11-19T13:31:31;9.00;;;1.90;;
82560;SDS011;72228;51.208;10.468;2023-11-19T13:33:58;9.77;;;2.42;;
82560;SDS011;72228;51.208;10.468;2023-11-19T13:36:24;10.07;;;2.20;;
82560;SDS011;72228;51.208;10.468;2023-11-19T13:38:51;4.28;;;1.70;;
82560;SDS011;72228;51.208;10.468;2023-11-19T13:41:17;8.88;;;2.40;;
82560;SDS011;72228;51.208;10.468;2023-11-19T13:43:43;10.57;;;2.08;;
82560;SDS011;72228;51.208;10.468;2023-11-19T13:46:09;8.80;;;2.45;;
82560;SDS011;72228;51.208;10.468;2023-11-19T13:48:35;15.10;;;2.20;;
82560;SDS011;72228;51.208;10.468;2023-11-19T13:51:01;18.42;;;2.00;;
82560;SDS011;72228;51.208;10.468;2023-11-19T13:53:27;6.38;;;1.85;;
82560;SDS011;72228;51.208;10.468;2023-11-19T13:55:52;8.52;;;2.20;;
82560;SDS011;72228;51.208;10.468;2023-11-19T13:58:18;7.15;;;2.63;;
82560;SDS011;72228;51.208;10.468;2023-11-19T14:00:44;11.63;;;3.45;;
82560;SDS011;72228;51.208;10.468;2023-11-19T14:03:10;8.60;;;2.38;;
82560;SDS011;72228;51.208;10.468;2023-11-19T14:05:37;9.80;;;2.28;;
82560;SDS011;72228;51.208;10.468;2023-11-19T14:08:03;18.05;;;5.00;;
82560;SDS011;72228;51.208;10.468;2023-11-19T14:10:39;12.25;;;3.47;;
82560;SDS011;72228;51.208;10.468;2023-11-19T14:13:09;58.72;;;20.48;;
82560;SDS011;72228;51.208;10.468;2023-11-19T14:15:37;18.75;;;7.32;;
82560;SDS011;72228;51.208;10.468;2023-11-19T14:20:31;11.48;;;3.55;;
82560;SDS011;72228;51.208;10.468;2023-11-19T14:22:56;17.75;;;3.10;;
82560;SDS011;72228;51.208;10.468;2023-11-19T14:25:23;12.57;;;3.05;;
82560;SDS011;72228;51.208;10.468;2023-11-19T14:27:49;9.13;;;2.95;;
82560;SDS011;72228;51.208;10.468;2023-11-19T14:30:34;9.02;;;2.17;;
82560;SDS011;72228;51.208;10.468;2023-11-19T14:32:59;10.10;;;2.00;;
82560;SDS011;72228;51.208;10.468;2023-11-19T14:35:26;10.35;;;3.50;;
82560;SDS011;72228;51.208;10.468;2023-11-19T14:37:51;13.82;;;2.83;;
82560;SDS011;72228;51.208;10.468;2023-11-19T14:40:18;9.93;;;2.17;;
82560;SDS011;72228;51.208;10.468;2023-11-19T14:42:44;9.75;;;2.17;;
82560;SDS011;72228;51.208;10.468;2023-11-19T14:45:10;5.18;;;1.90;;
82560;SDS011;72228;51.208;10.468;2023-11-19T14:47:37;6.65;;;1.92;;
82560;SDS011;72228;51.208;10.468;2023-11-19T14:50:03;5.32;;;1.65;;
82560;SDS011;72228;51.208;10.468;2023-11-19T14:52:30;6.95;;;1.98;;
82560;SDS011;72228;51.208;10.468;2023-11-19T14:54:56;5.60;;;1.50;;
82560;SDS011;72228;51.208;10.468;2023-11-19T14:57:22;3.47;;;1.65;;
82560;SDS011;72228;51.208;10.468;2023-11-19T14:59:48;4.25;;;2.10;;
82560;SDS011;72228;51.208;10.468;2023-11-19T15:02:14;6.00;;;1.85;;
82560;SDS011;72228;51.208;10.468;2023-11-19T15:04:39;5.95;;;2.72;;